x

Grays Reef - 40 Nm Southeast Of Savannah, Ga (41008) Wave Buoy

7:50am - Wed 20th Aug 2014 All times are EDT. -4 hours from GMT.

  • Sig Wave height 2.0ft
  • Swell Direction
  • Peak Period 3s
  • Average Period 4s
  • Wind
    16mph, 18mph gusts
  • Sea Temp 85°f
  • Air Temp 80°f
  • Sea Pressure 1015.9mb
  • Grays Reef - 40 Nm Southeast Of Savannah, Ga
  • Grays Reef - 40 Nm Southeast Of Savannah, Ga

More Historic Weather Station data

Upgrade to MSW Pro to gain access to the past 30 days of data for over 8000 Wavebouys and Weather Stations around the globe.

Join Pro

Comparision Forecast

View Surf forecast
   
Wed 08/20 7:50am 2ft 3s 4s 16 18 mph 1015.9mb 85f 80f
6:50am 2.5ft 3s 3s 13 18 mph 1014.9mb 85f 81f
5:50am 2.5ft 4s 4s 16 18 mph 1014.2mb 85f 82f
4:50am 3ft 4s 4s 18 20 mph 1013.6mb 85f 82f
3:50am 3ft 4s 4s 20 25 mph 1013.7mb 85f 82f
2:50am 3.5ft 4s 4s 25 29 mph 1013.7mb 85f 82f
1:50am 3ft 4s 4s 22 27 mph 1014.3mb 85f 82f
12:50am 2.5ft 4s 4s 20 25 mph 1014.3mb 85f 82f
Tue 08/19 11:50pm 2ft 4s 3s 18 22 mph 1014.1mb 85f 82f
10:50pm 2ft 3s 3s 18 20 mph 1014.1mb 85f 82f
9:50pm 2.5ft 3s 3s 18 20 mph 1013.4mb 85f 82f
8:50pm 1.6ft 3s 3s 22 27 mph 1012.7mb 85f 83f
7:50pm 1.6ft 3s 3s 18 22 mph 1012.7mb 85f 84f
6:50pm 1.6ft 3s 3s 16 18 mph 1013.2mb 85f 85f
5:50pm 2ft 3s 3s 11 13 mph 1012.8mb 85f 84f
4:50pm 1.6ft 3s 3s 20 22 mph 1012.7mb 85f 82f
3:50pm 1.6ft 4s 3s 4 7 mph 1013.3mb 85f 83f
2:50pm 2ft 4s 3s 16 20 mph 1013.7mb 85f 81f
1:50pm 2ft 4s 4s 13 18 mph 1014.1mb 85f 85f
12:50pm 2.5ft 4s 4s 16 20 mph 1014.8mb 85f 85f
11:50am 2.5ft 4s 4s 16 20 mph 1015.1mb 85f 83f
10:50am 2.5ft 4s 4s 18 22 mph 1015.1mb 85f 82f
9:50am 2.5ft 4s 3s 18 22 mph 1015.2mb 85f 82f
8:50am 3ft 4s 4s 20 25 mph 1014.4mb 85f 81f
7:50am 2.5ft 4s 3s 20 25 mph 1014.1mb 85f 81f
6:50am 3ft 4s 4s 20 25 mph 1013.7mb 85f 81f
5:50am 3.5ft 4s 4s 20 25 mph 1012.9mb 85f 81f
4:50am 3.5ft 4s 4s 22 25 mph 1012.5mb 85f 81f
3:50am 3.5ft 4s 4s 20 25 mph 1012.6mb 85f 82f
2:50am 3.5ft 5s 4s 20 25 mph 1012.7mb 85f 82f
1:50am 3.5ft 5s 4s 22 25 mph 1012.9mb 85f 82f
12:50am 3.5ft 4s 4s 18 22 mph 1012.9mb 85f 83f
Mon 08/18 11:50pm 3.5ft 5s 4s 20 25 mph 1013.2mb 85f 83f
10:50pm 4ft 5s 4s 20 25 mph 1013.2mb 85f 84f
9:50pm 4ft 4s 4s 25 27 mph 1012.9mb 85f 84f
8:50pm 4ft 5s 4s 25 29 mph 1012.3mb 85f 84f
7:50pm 3.5ft 5s 4s 29 31 mph 1011.4mb 85f 85f
6:50pm 3.5ft 4s 4s 22 27 mph 1011.4mb 85f 85f
5:50pm 2.5ft 4s 3s 25 29 mph 1011.9mb 85f 84f
4:50pm 2.5ft 4s 3s 20 25 mph 1012.3mb 85f 85f
3:50pm 2ft 4s 3s 18 20 mph 1012.8mb 85f 85f
2:50pm 2ft 4s 3s 16 18 mph 1013.5mb 85f 86f
1:50pm 2ft 4s 3s 18 20 mph 1014.4mb 85f 85f
12:50pm 2ft 3s 3s 13 18 mph 1015.1mb 85f 84f
11:50am 2ft 4s 3s 13 18 mph 1015.6mb 85f 83f
10:50am 2ft 3s 3s 16 20 mph 1015.8mb 85f 82f
9:50am 2ft 3s 3s 18 20 mph 1015.8mb 85f 81f
8:50am 2ft 3s 3s 16 18 mph 1016.2mb 85f 81f
7:50am 2.5ft 4s 3s 16 18 mph 1016.1mb 85f 82f
6:50am 2.5ft 4s 3s 16 18 mph 1015.6mb 85f 82f
5:50am 2.5ft 4s 4s 16 18 mph 1015.3mb 85f 82f
4:50am 3ft 4s 4s 18 20 mph 1015.3mb 85f 82f
3:50am 2.5ft 4s 4s 20 25 mph 1015.3mb 85f 82f
2:50am 2.5ft 4s 4s 18 22 mph 1015.7mb 85f 83f
1:50am 2.5ft 4s 3s 22 25 mph 1015.9mb 85f 83f
12:50am 2.5ft 4s 4s 20 25 mph 1015.9mb 85f 84f
Sun 08/17 11:50pm 2.5ft 4s 4s 20 22 mph 1016.2mb 85f 84f
10:50pm 2.5ft 4s 4s 18 20 mph 1016.6mb 85f 85f
9:50pm 2.5ft 4s 4s 18 20 mph 1016.2mb 86f 86f
8:50pm 2.5ft 4s 3s 22 27 mph 1015.9mb 86f 85f
7:50pm 2ft 3s 3s 16 20 mph 1015.6mb 86f 85f
6:50pm 1.6ft 5s 3s 13 16 mph 1015.5mb 86f 85f
5:50pm 1.6ft 5s 4s 13
mph
1015.5mb 86f 85f
4:50pm 1.6ft 4s 4s 13 16 mph 1015.7mb 86f 85f
3:50pm 1.6ft 5s 4s 11 13 mph 1016.2mb 87f 85f
2:50pm 1.6ft 4s 4s 7 9 mph 1016.8mb 87f 86f
1:50pm 1.6ft 5s 4s 7
mph
1017mb 86f 85f
12:50pm 1.6ft 4s 4s 7 9 mph 1017.7mb 86f 84f
11:50am 1.6ft 4s 4s 7 9 mph 1018.2mb 85f 83f
10:50am 2ft 4s 4s 9 11 mph 1018.3mb 85f 82f
9:50am 2ft 5s 4s 9 11 mph 1018mb 85f 81f
7:50am 2ft 4s 4s 11 13 mph 1017.7mb 85f 82f
6:50am 2.5ft 4s 4s 13 16 mph 1017.2mb 85f 82f
5:50am 2.5ft 5s 4s 13
mph
1016.5mb 85f 82f
4:50am 2.5ft 5s 4s 16 18 mph 1016.2mb 85f 83f
3:50am 2.5ft 5s 4s 18 20 mph 1015.9mb 85f 83f
2:50am 3ft 5s 4s 16 20 mph 1015.6mb 85f 84f
1:50am 3.5ft 5s 4s 16 18 mph 1016mb 85f 84f
12:50am 3.5ft 5s 4s 18 20 mph 1016.4mb 85f 84f
Sat 08/16 11:50pm 3ft 5s 4s 18 20 mph 1016.6mb 85f 84f
10:50pm 3ft 4s 4s 18 22 mph 1016.7mb 85f 84f
9:50pm 2.5ft 4s 4s 18 22 mph 1016.7mb 85f 84f
8:50pm 2ft 8s 4s 18 20 mph 1016.3mb 85f 84f
7:50pm 2ft 4s 4s 13 16 mph 1016.1mb 86f 85f
6:50pm 1.6ft 4s 4s 13 16 mph 1016.1mb 86f 85f
5:50pm 1.6ft 9s 4s 13
mph
1016.4mb 86f 85f
4:50pm 1.6ft 9s 5s 11
mph
1016.2mb 86f 84f
3:50pm 1.6ft 9s 5s 9 11 mph 1016.1mb 87f 83f
2:50pm 1.6ft 9s 4s 7 9 mph 1016.5mb 87f 83f
1:50pm 2ft 4s 4s 7 9 mph 1016.9mb 86f 82f